sensor_id;sensor_type;location;lat;lon;timestamp;pressure;altitude;pressure_sealevel;temperature;humidity
11985;BME280;6052;53.246;10.368;2023-04-07T00:01:34;101313.16;;;8.66;62.76
11985;BME280;6052;53.246;10.368;2023-04-07T00:04:03;101320.19;;;8.60;62.36
11985;BME280;6052;53.246;10.368;2023-04-07T00:06:33;101324.91;;;8.58;63.00
11985;BME280;6052;53.246;10.368;2023-04-07T00:09:02;101327.34;;;8.73;62.83
11985;BME280;6052;53.246;10.368;2023-04-07T00:11:32;101317.47;;;8.73;62.92
11985;BME280;6052;53.246;10.368;2023-04-07T00:14:04;101321.59;;;8.69;62.64
11985;BME280;6052;53.246;10.368;2023-04-07T00:16:33;101318.28;;;8.67;62.57
11985;BME280;6052;53.246;10.368;2023-04-07T00:19:02;101318.53;;;8.53;62.85
11985;BME280;6052;53.246;10.368;2023-04-07T00:21:32;101328.00;;;8.62;63.12
11985;BME280;6052;53.246;10.368;2023-04-07T00:24:01;101322.47;;;8.44;63.12
11985;BME280;6052;53.246;10.368;2023-04-07T00:26:30;101309.69;;;8.52;62.90
11985;BME280;6052;53.246;10.368;2023-04-07T00:29:00;101315.22;;;8.64;63.18
11985;BME280;6052;53.246;10.368;2023-04-07T00:31:32;101319.78;;;8.50;62.96
11985;BME280;6052;53.246;10.368;2023-04-07T00:34:01;101321.22;;;8.40;63.63
11985;BME280;6052;53.246;10.368;2023-04-07T00:36:31;101312.59;;;8.31;63.81
11985;BME280;6052;53.246;10.368;2023-04-07T00:39:01;101318.75;;;8.38;63.54
11985;BME280;6052;53.246;10.368;2023-04-07T00:41:32;101319.59;;;8.45;63.31
11985;BME280;6052;53.246;10.368;2023-04-07T00:44:02;101316.91;;;8.32;64.23
11985;BME280;6052;53.246;10.368;2023-04-07T00:46:34;101303.34;;;8.40;63.81
11985;BME280;6052;53.246;10.368;2023-04-07T00:49:04;101311.75;;;8.18;64.30
11985;BME280;6052;53.246;10.368;2023-04-07T00:51:36;101308.88;;;8.06;64.37
11985;BME280;6052;53.246;10.368;2023-04-07T00:54:07;101311.34;;;7.95;64.59
11985;BME280;6052;53.246;10.368;2023-04-07T00:56:37;101299.41;;;8.04;64.84
11985;BME280;6052;53.246;10.368;2023-04-07T00:59:09;101306.41;;;7.98;65.06
11985;BME280;6052;53.246;10.368;2023-04-07T01:01:45;101303.53;;;8.06;65.00
11985;BME280;6052;53.246;10.368;2023-04-07T01:04:26;101305.78;;;8.03;64.87
11985;BME280;6052;53.246;10.368;2023-04-07T01:07:03;101301.69;;;8.00;65.10
11985;BME280;6052;53.246;10.368;2023-04-07T01:09:36;101305.16;;;8.14;65.12
11985;BME280;6052;53.246;10.368;2023-04-07T01:12:15;101308.69;;;8.21;64.27
11985;BME280;6052;53.246;10.368;2023-04-07T01:14:50;101307.66;;;8.28;63.72
11985;BME280;6052;53.246;10.368;2023-04-07T01:17:24;101307.84;;;8.40;63.40
11985;BME280;6052;53.246;10.368;2023-04-07T01:19:57;101305.97;;;8.53;63.23
11985;BME280;6052;53.246;10.368;2023-04-07T01:22:32;101305.78;;;8.48;63.16
11985;BME280;6052;53.246;10.368;2023-04-07T01:25:21;101306.59;;;8.42;62.93
11985;BME280;6052;53.246;10.368;2023-04-07T01:27:59;101309.88;;;8.51;62.78
11985;BME280;6052;53.246;10.368;2023-04-07T01:30:40;101314.63;;;8.36;63.05
11985;BME280;6052;53.246;10.368;2023-04-07T01:33:10;101301.84;;;8.51;62.13
11985;BME280;6052;53.246;10.368;2023-04-07T01:35:41;101299.00;;;8.46;62.49
11985;BME280;6052;53.246;10.368;2023-04-07T01:38:12;101302.69;;;8.51;62.20
11985;BME280;6052;53.246;10.368;2023-04-07T01:40:43;101303.94;;;8.55;61.60
11985;BME280;6052;53.246;10.368;2023-04-07T01:43:14;101297.75;;;8.55;61.92
11985;BME280;6052;53.246;10.368;2023-04-07T01:45:47;101298.56;;;8.55;62.07
11985;BME280;6052;53.246;10.368;2023-04-07T01:48:17;101301.25;;;8.49;61.76
11985;BME280;6052;53.246;10.368;2023-04-07T01:50:48;101306.00;;;8.47;61.81
11985;BME280;6052;53.246;10.368;2023-04-07T01:53:18;101310.31;;;8.48;62.24
11985;BME280;6052;53.246;10.368;2023-04-07T01:55:48;101302.69;;;8.38;62.12
11985;BME280;6052;53.246;10.368;2023-04-07T01:58:19;101307.06;;;8.33;62.53
11985;BME280;6052;53.246;10.368;2023-04-07T02:00:50;101299.81;;;8.33;62.19
11985;BME280;6052;53.246;10.368;2023-04-07T02:03:23;101308.69;;;8.47;62.00
11985;BME280;6052;53.246;10.368;2023-04-07T02:06:01;101307.66;;;8.48;61.84
11985;BME280;6052;53.246;10.368;2023-04-07T02:08:32;101304.56;;;8.44;61.82
11985;BME280;6052;53.246;10.368;2023-04-07T02:11:04;101308.28;;;8.24;61.95
11985;BME280;6052;53.246;10.368;2023-04-07T02:13:36;101305.97;;;8.14;62.53
11985;BME280;6052;53.246;10.368;2023-04-07T02:16:08;101310.06;;;7.78;62.68
11985;BME280;6052;53.246;10.368;2023-04-07T02:18:39;101311.75;;;8.05;63.07
11985;BME280;6052;53.246;10.368;2023-04-07T02:21:10;101311.97;;;8.16;62.56
11985;BME280;6052;53.246;10.368;2023-04-07T02:23:40;101313.38;;;8.12;62.42
11985;BME280;6052;53.246;10.368;2023-04-07T02:26:10;101310.13;;;8.23;61.99
11985;BME280;6052;53.246;10.368;2023-04-07T02:28:39;101310.97;;;8.24;62.21
11985;BME280;6052;53.246;10.368;2023-04-07T02:31:11;101310.31;;;8.09;61.99
11985;BME280;6052;53.246;10.368;2023-04-07T02:33:41;101309.69;;;8.07;62.13
11985;BME280;6052;53.246;10.368;2023-04-07T02:36:11;101311.94;;;8.03;62.35
11985;BME280;6052;53.246;10.368;2023-04-07T02:38:40;101306.81;;;7.95;62.76
11985;BME280;6052;53.246;10.368;2023-04-07T02:41:09;101318.13;;;7.97;62.63
11985;BME280;6052;53.246;10.368;2023-04-07T02:43:38;101322.41;;;7.92;62.60
11985;BME280;6052;53.246;10.368;2023-04-07T02:46:10;101317.09;;;7.79;63.18
11985;BME280;6052;53.246;10.368;2023-04-07T02:48:42;101322.22;;;7.87;62.73
11985;BME280;6052;53.246;10.368;2023-04-07T02:51:11;101322.41;;;7.72;63.26
11985;BME280;6052;53.246;10.368;2023-04-07T02:53:40;101318.53;;;7.81;63.15
11985;BME280;6052;53.246;10.368;2023-04-07T02:56:10;101322.22;;;7.87;63.01
11985;BME280;6052;53.246;10.368;2023-04-07T02:58:39;101317.09;;;7.79;63.05
11985;BME280;6052;53.246;10.368;2023-04-07T03:01:11;101321.19;;;7.75;63.34
11985;BME280;6052;53.246;10.368;2023-04-07T03:03:40;101321.59;;;7.78;63.04
11985;BME280;6052;53.246;10.368;2023-04-07T03:06:10;101317.91;;;7.86;62.91
11985;BME280;6052;53.246;10.368;2023-04-07T03:08:40;101315.81;;;7.68;62.53
11985;BME280;6052;53.246;10.368;2023-04-07T03:11:09;101314.81;;;7.82;62.73
11985;BME280;6052;53.246;10.368;2023-04-07T03:13:38;101323.88;;;7.81;62.76
11985;BME280;6052;53.246;10.368;2023-04-07T03:16:10;101322.41;;;7.85;62.48
11985;BME280;6052;53.246;10.368;2023-04-07T03:18:40;101318.94;;;7.85;62.17
11985;BME280;6052;53.246;10.368;2023-04-07T03:21:09;101312.94;;;7.83;62.47
11985;BME280;6052;53.246;10.368;2023-04-07T03:23:38;101323.63;;;7.83;62.40
11985;BME280;6052;53.246;10.368;2023-04-07T03:26:08;101322.00;;;7.82;62.08
11985;BME280;6052;53.246;10.368;2023-04-07T03:28:37;101318.72;;;7.86;62.13
11985;BME280;6052;53.246;10.368;2023-04-07T03:31:07;101328.38;;;7.87;62.01
11985;BME280;6052;53.246;10.368;2023-04-07T03:33:39;101321.59;;;7.85;62.07
11985;BME280;6052;53.246;10.368;2023-04-07T03:36:08;101331.66;;;7.83;62.03
11985;BME280;6052;53.246;10.368;2023-04-07T03:38:39;101337.63;;;7.78;61.98
11985;BME280;6052;53.246;10.368;2023-04-07T03:41:08;101338.47;;;7.79;61.90
11985;BME280;6052;53.246;10.368;2023-04-07T03:43:38;101338.22;;;7.80;61.92
11985;BME280;6052;53.246;10.368;2023-04-07T03:46:07;101348.13;;;7.80;61.97
11985;BME280;6052;53.246;10.368;2023-04-07T03:48:39;101342.97;;;7.78;62.12
11985;BME280;6052;53.246;10.368;2023-04-07T03:51:09;101343.81;;;7.92;61.96
11985;BME280;6052;53.246;10.368;2023-04-07T03:53:38;101349.78;;;7.87;61.75
11985;BME280;6052;53.246;10.368;2023-04-07T03:56:07;101347.50;;;7.84;61.89
11985;BME280;6052;53.246;10.368;2023-04-07T03:58:37;101352.63;;;7.86;61.82
11985;BME280;6052;53.246;10.368;2023-04-07T04:01:08;101350.97;;;7.78;61.80
11985;BME280;6052;53.246;10.368;2023-04-07T04:03:40;101356.56;;;7.90;61.84
11985;BME280;6052;53.246;10.368;2023-04-07T04:06:09;101352.22;;;7.82;61.66
11985;BME280;6052;53.246;10.368;2023-04-07T04:08:39;101346.66;;;7.77;61.90
11985;BME280;6052;53.246;10.368;2023-04-07T04:11:08;101353.84;;;7.77;61.76
11985;BME280;6052;53.246;10.368;2023-04-07T04:13:37;101358.38;;;7.70;62.50
11985;BME280;6052;53.246;10.368;2023-04-07T04:16:07;101361.84;;;7.64;62.19
11985;BME280;6052;53.246;10.368;2023-04-07T04:18:42;101368.41;;;7.68;62.23
11985;BME280;6052;53.246;10.368;2023-04-07T04:21:12;101364.31;;;7.72;62.10
11985;BME280;6052;53.246;10.368;2023-04-07T04:23:41;101359.78;;;7.59;62.22
11985;BME280;6052;53.246;10.368;2023-04-07T04:26:11;101362.47;;;7.66;62.11
11985;BME280;6052;53.246;10.368;2023-04-07T04:28:41;101367.81;;;7.66;61.78
11985;BME280;6052;53.246;10.368;2023-04-07T04:31:10;101376.22;;;7.56;61.87
11985;BME280;6052;53.246;10.368;2023-04-07T04:33:42;101360.84;;;7.71;61.97
11985;BME280;6052;53.246;10.368;2023-04-07T04:36:12;101371.69;;;7.63;62.05
11985;BME280;6052;53.246;10.368;2023-04-07T04:38:41;101378.31;;;7.67;62.14
11985;BME280;6052;53.246;10.368;2023-04-07T04:41:11;101389.56;;;7.63;61.69
11985;BME280;6052;53.246;10.368;2023-04-07T04:43:40;101385.69;;;7.59;62.09
11985;BME280;6052;53.246;10.368;2023-04-07T04:46:10;101384.66;;;7.60;62.05
11985;BME280;6052;53.246;10.368;2023-04-07T04:48:42;101383.00;;;7.59;62.19
11985;BME280;6052;53.246;10.368;2023-04-07T04:51:12;101391.22;;;7.57;61.99
11985;BME280;6052;53.246;10.368;2023-04-07T04:53:41;101383.16;;;7.51;62.53
11985;BME280;6052;53.246;10.368;2023-04-07T04:56:11;101388.47;;;7.44;62.23
11985;BME280;6052;53.246;10.368;2023-04-07T04:58:40;101384.19;;;7.50;62.47
11985;BME280;6052;53.246;10.368;2023-04-07T05:01:13;101380.88;;;7.48;62.17
11985;BME280;6052;53.246;10.368;2023-04-07T05:03:45;101383.59;;;7.54;62.03
11985;BME280;6052;53.246;10.368;2023-04-07T05:06:15;101391.41;;;7.56;62.24
11985;BME280;6052;53.246;10.368;2023-04-07T05:08:44;101394.31;;;7.61;61.95
11985;BME280;6052;53.246;10.368;2023-04-07T05:11:15;101393.91;;;7.64;61.98
11985;BME280;6052;53.246;10.368;2023-04-07T05:13:44;101398.06;;;7.79;62.03
11985;BME280;6052;53.246;10.368;2023-04-07T05:16:14;101402.38;;;7.74;61.73
11985;BME280;6052;53.246;10.368;2023-04-07T05:18:46;101392.09;;;7.77;61.83
11985;BME280;6052;53.246;10.368;2023-04-07T05:21:15;101406.25;;;7.78;61.96
11985;BME280;6052;53.246;10.368;2023-04-07T05:23:45;101404.81;;;7.75;61.97
11985;BME280;6052;53.246;10.368;2023-04-07T05:26:15;101406.88;;;7.73;61.95
11985;BME280;6052;53.246;10.368;2023-04-07T05:28:44;101411.84;;;7.76;62.16
11985;BME280;6052;53.246;10.368;2023-04-07T05:31:14;101415.09;;;7.72;62.13
11985;BME280;6052;53.246;10.368;2023-04-07T05:33:46;101410.16;;;7.75;62.20
11985;BME280;6052;53.246;10.368;2023-04-07T05:36:15;101420.44;;;7.72;62.28
11985;BME280;6052;53.246;10.368;2023-04-07T05:38:45;101422.28;;;7.65;62.61
11985;BME280;6052;53.246;10.368;2023-04-07T05:41:14;101421.44;;;7.64;62.80
11985;BME280;6052;53.246;10.368;2023-04-07T05:43:44;101431.75;;;7.74;63.10
11985;BME280;6052;53.246;10.368;2023-04-07T05:46:16;101429.09;;;7.74;62.54
11985;BME280;6052;53.246;10.368;2023-04-07T05:48:48;101427.19;;;7.68;62.59
11985;BME280;6052;53.246;10.368;2023-04-07T05:51:18;101430.94;;;7.80;63.10
11985;BME280;6052;53.246;10.368;2023-04-07T05:53:47;101431.16;;;7.78;63.49
11985;BME280;6052;53.246;10.368;2023-04-07T05:56:17;101443.66;;;7.78;63.49
11985;BME280;6052;53.246;10.368;2023-04-07T05:58:46;101439.56;;;7.75;63.70
11985;BME280;6052;53.246;10.368;2023-04-07T06:01:16;101440.38;;;7.76;64.03
11985;BME280;6052;53.246;10.368;2023-04-07T06:03:48;101442.91;;;7.84;63.69
11985;BME280;6052;53.246;10.368;2023-04-07T06:06:17;101443.06;;;7.76;64.27
11985;BME280;6052;53.246;10.368;2023-04-07T06:08:47;101441.56;;;7.60;63.76
11985;BME280;6052;53.246;10.368;2023-04-07T06:11:16;101441.63;;;7.73;64.13
11985;BME280;6052;53.246;10.368;2023-04-07T06:13:46;101445.53;;;7.77;63.72
11985;BME280;6052;53.246;10.368;2023-04-07T06:16:16;101447.78;;;7.80;63.51
11985;BME280;6052;53.246;10.368;2023-04-07T06:18:49;101454.38;;;7.84;64.76
11985;BME280;6052;53.246;10.368;2023-04-07T06:21:18;101456.03;;;7.79;64.96
11985;BME280;6052;53.246;10.368;2023-04-07T06:23:47;101471.41;;;7.77;64.71
11985;BME280;6052;53.246;10.368;2023-04-07T06:26:17;101453.59;;;7.84;64.35
11985;BME280;6052;53.246;10.368;2023-04-07T06:28:47;101459.31;;;7.81;64.30
11985;BME280;6052;53.246;10.368;2023-04-07T06:31:16;101463.63;;;7.82;65.04
11985;BME280;6052;53.246;10.368;2023-04-07T06:33:49;101461.84;;;7.95;64.69
11985;BME280;6052;53.246;10.368;2023-04-07T06:36:19;101456.44;;;7.82;65.27
11985;BME280;6052;53.246;10.368;2023-04-07T06:38:49;101466.94;;;7.84;64.93
11985;BME280;6052;53.246;10.368;2023-04-07T06:41:18;101465.50;;;7.88;65.19
11985;BME280;6052;53.246;10.368;2023-04-07T06:43:49;101475.16;;;7.82;65.97
11985;BME280;6052;53.246;10.368;2023-04-07T06:46:19;101469.44;;;7.98;65.32
11985;BME280;6052;53.246;10.368;2023-04-07T06:48:51;101473.78;;;7.93;65.57
11985;BME280;6052;53.246;10.368;2023-04-07T06:51:21;101479.97;;;8.06;65.52
11985;BME280;6052;53.246;10.368;2023-04-07T06:53:51;101478.91;;;8.01;65.12
11985;BME280;6052;53.246;10.368;2023-04-07T06:56:22;101478.31;;;8.05;65.22
11985;BME280;6052;53.246;10.368;2023-04-07T06:58:52;101476.47;;;8.12;65.23
11985;BME280;6052;53.246;10.368;2023-04-07T07:01:22;101475.84;;;8.04;64.87
11985;BME280;6052;53.246;10.368;2023-04-07T07:03:53;101484.13;;;8.15;65.66
11985;BME280;6052;53.246;10.368;2023-04-07T07:06:23;101477.25;;;7.93;65.13
11985;BME280;6052;53.246;10.368;2023-04-07T07:08:53;101483.28;;;8.15;64.93
11985;BME280;6052;53.246;10.368;2023-04-07T07:11:22;101481.00;;;8.05;65.22
11985;BME280;6052;53.246;10.368;2023-04-07T07:13:53;101485.72;;;8.10;65.04
11985;BME280;6052;53.246;10.368;2023-04-07T07:16:22;101489.47;;;8.22;65.04
11985;BME280;6052;53.246;10.368;2023-04-07T07:18:55;101485.84;;;8.29;64.58
11985;BME280;6052;53.246;10.368;2023-04-07T07:21:24;101484.91;;;8.03;64.59
11985;BME280;6052;53.246;10.368;2023-04-07T07:23:53;101489.94;;;8.25;65.32
11985;BME280;6052;53.246;10.368;2023-04-07T07:26:23;101492.16;;;8.22;65.15
11985;BME280;6052;53.246;10.368;2023-04-07T07:28:52;101491.56;;;8.26;64.72
11985;BME280;6052;53.246;10.368;2023-04-07T07:31:22;101496.50;;;8.23;64.12
11985;BME280;6052;53.246;10.368;2023-04-07T07:33:51;101490.50;;;8.21;64.36
11985;BME280;6052;53.246;10.368;2023-04-07T07:36:23;101491.16;;;8.36;64.67
11985;BME280;6052;53.246;10.368;2023-04-07T07:38:53;101499.00;;;8.44;66.10
11985;BME280;6052;53.246;10.368;2023-04-07T07:41:22;101497.78;;;8.66;65.38
11985;BME280;6052;53.246;10.368;2023-04-07T07:43:51;101500.91;;;8.69;64.50
11985;BME280;6052;53.246;10.368;2023-04-07T07:46:21;101506.47;;;8.94;65.78
11985;BME280;6052;53.246;10.368;2023-04-07T07:48:52;101502.97;;;8.87;64.86
11985;BME280;6052;53.246;10.368;2023-04-07T07:51:24;101506.88;;;9.04;65.34
11985;BME280;6052;53.246;10.368;2023-04-07T07:53:54;101513.47;;;9.08;64.97
11985;BME280;6052;53.246;10.368;2023-04-07T07:56:23;101507.25;;;9.14;63.92
11985;BME280;6052;53.246;10.368;2023-04-07T07:58:53;101510.16;;;9.19;65.15
11985;BME280;6052;53.246;10.368;2023-04-07T08:01:23;101513.00;;;9.37;66.65
11985;BME280;6052;53.246;10.368;2023-04-07T08:03:53;101512.59;;;9.40;65.34
11985;BME280;6052;53.246;10.368;2023-04-07T08:06:25;101521.84;;;9.50;66.04
11985;BME280;6052;53.246;10.368;2023-04-07T08:08:57;101523.09;;;9.41;64.18
11985;BME280;6052;53.246;10.368;2023-04-07T08:11:28;101534.44;;;9.37;63.60
11985;BME280;6052;53.246;10.368;2023-04-07T08:13:57;101525.75;;;9.54;63.46
11985;BME280;6052;53.246;10.368;2023-04-07T08:16:35;101535.78;;;9.78;64.80
11985;BME280;6052;53.246;10.368;2023-04-07T08:19:04;101534.75;;;9.73;63.52
11985;BME280;6052;53.246;10.368;2023-04-07T08:21:36;101539.91;;;9.87;63.90
11985;BME280;6052;53.246;10.368;2023-04-07T08:24:07;101536.81;;;9.90;62.53
11985;BME280;6052;53.246;10.368;2023-04-07T08:26:37;101533.31;;;9.77;61.35
11985;BME280;6052;53.246;10.368;2023-04-07T08:29:06;101523.16;;;9.92;60.69
11985;BME280;6052;53.246;10.368;2023-04-07T08:31:35;101535.94;;;9.96;62.00
11985;BME280;6052;53.246;10.368;2023-04-07T08:34:05;101539.03;;;10.06;61.54
11985;BME280;6052;53.246;10.368;2023-04-07T08:36:37;101530.13;;;10.12;62.58
11985;BME280;6052;53.246;10.368;2023-04-07T08:39:09;101535.88;;;10.16;61.22
11985;BME280;6052;53.246;10.368;2023-04-07T08:41:39;101537.34;;;10.12;60.71
11985;BME280;6052;53.246;10.368;2023-04-07T08:44:10;101537.09;;;10.20;60.76
11985;BME280;6052;53.246;10.368;2023-04-07T08:46:42;101540.16;;;10.30;60.42
11985;BME280;6052;53.246;10.368;2023-04-07T08:49:12;101535.41;;;10.32;59.18
11985;BME280;6052;53.246;10.368;2023-04-07T08:51:47;101542.50;;;10.51;60.67
11985;BME280;6052;53.246;10.368;2023-04-07T08:54:17;101541.56;;;10.70;60.69
11985;BME280;6052;53.246;10.368;2023-04-07T08:56:48;101539.81;;;10.51;58.81
11985;BME280;6052;53.246;10.368;2023-04-07T08:59:18;101541.06;;;10.48;59.39
11985;BME280;6052;53.246;10.368;2023-04-07T09:01:52;101537.53;;;10.54;59.05
11985;BME280;6052;53.246;10.368;2023-04-07T09:04:22;101533.00;;;10.86;59.41
11985;BME280;6052;53.246;10.368;2023-04-07T09:06:55;101536.47;;;10.86;59.98
11985;BME280;6052;53.246;10.368;2023-04-07T09:09:28;101540.50;;;11.02;59.78
11985;BME280;6052;53.246;10.368;2023-04-07T09:11:57;101536.19;;;11.01;59.45
11985;BME280;6052;53.246;10.368;2023-04-07T09:14:27;101542.09;;;11.09;60.62
11985;BME280;6052;53.246;10.368;2023-04-07T09:16:57;101537.88;;;10.95;59.02
11985;BME280;6052;53.246;10.368;2023-04-07T09:19:26;101535.34;;;11.00;58.37
11985;BME280;6052;53.246;10.368;2023-04-07T09:21:59;101539.16;;;11.35;59.20
11985;BME280;6052;53.246;10.368;2023-04-07T09:24:29;101537.53;;;11.34;59.52
11985;BME280;6052;53.246;10.368;2023-04-07T09:27:09;101538.94;;;11.37;58.92
11985;BME280;6052;53.246;10.368;2023-04-07T09:29:44;101530.31;;;11.53;58.84
11985;BME280;6052;53.246;10.368;2023-04-07T09:32:33;101536.72;;;11.52;58.91
11985;BME280;6052;53.246;10.368;2023-04-07T09:35:04;101529.19;;;11.42;58.31
11985;BME280;6052;53.246;10.368;2023-04-07T09:37:36;101533.44;;;11.50;57.78
11985;BME280;6052;53.246;10.368;2023-04-07T09:40:07;101537.03;;;11.44;56.80
11985;BME280;6052;53.246;10.368;2023-04-07T09:42:43;101543.50;;;11.36;56.16
11985;BME280;6052;53.246;10.368;2023-04-07T09:45:23;101530.41;;;11.22;55.89
11985;BME280;6052;53.246;10.368;2023-04-07T09:48:04;101530.59;;;11.45;56.82
11985;BME280;6052;53.246;10.368;2023-04-07T09:50:35;101528.19;;;11.79;58.76
11985;BME280;6052;53.246;10.368;2023-04-07T09:53:07;101528.78;;;11.63;57.86
11985;BME280;6052;53.246;10.368;2023-04-07T09:55:38;101525.06;;;11.82;58.14
11985;BME280;6052;53.246;10.368;2023-04-07T09:58:11;101515.28;;;11.70;57.89
11985;BME280;6052;53.246;10.368;2023-04-07T10:00:42;101524.97;;;11.89;56.98
11985;BME280;6052;53.246;10.368;2023-04-07T10:03:12;101527.69;;;11.89;56.80
11985;BME280;6052;53.246;10.368;2023-04-07T10:05:43;101521.25;;;11.90;57.00
11985;BME280;6052;53.246;10.368;2023-04-07T10:08:16;101520.63;;;12.06;56.62
11985;BME280;6052;53.246;10.368;2023-04-07T10:10:47;101523.84;;;11.96;56.00
11985;BME280;6052;53.246;10.368;2023-04-07T10:13:17;101525.56;;;12.09;57.50
11985;BME280;6052;53.246;10.368;2023-04-07T10:15:46;101527.63;;;12.07;57.65
11985;BME280;6052;53.246;10.368;2023-04-07T10:18:19;101526.91;;;12.18;58.35
11985;BME280;6052;53.246;10.368;2023-04-07T10:20:51;101518.91;;;12.11;56.59
11985;BME280;6052;53.246;10.368;2023-04-07T10:23:32;101516.72;;;12.02;55.99
11985;BME280;6052;53.246;10.368;2023-04-07T10:26:07;101525.97;;;12.24;56.75
11985;BME280;6052;53.246;10.368;2023-04-07T10:28:40;101523.72;;;12.21;56.54
11985;BME280;6052;53.246;10.368;2023-04-07T10:31:11;101520.59;;;12.24;56.82
11985;BME280;6052;53.246;10.368;2023-04-07T10:33:49;101519.19;;;12.21;55.76
11985;BME280;6052;53.246;10.368;2023-04-07T10:36:19;101521.44;;;12.06;54.86
11985;BME280;6052;53.246;10.368;2023-04-07T10:41:51;101522.59;;;12.28;55.96
11985;BME280;6052;53.246;10.368;2023-04-07T10:44:45;101526.19;;;12.40;55.58
11985;BME280;6052;53.246;10.368;2023-04-07T10:47:17;101526.03;;;12.35;55.62
11985;BME280;6052;53.246;10.368;2023-04-07T10:50:14;101535.19;;;12.46;56.32
11985;BME280;6052;53.246;10.368;2023-04-07T10:52:46;101531.50;;;12.29;55.13
11985;BME280;6052;53.246;10.368;2023-04-07T10:55:36;101533.25;;;12.53;56.10
11985;BME280;6052;53.246;10.368;2023-04-07T10:58:17;101529.09;;;12.68;56.66
11985;BME280;6052;53.246;10.368;2023-04-07T11:01:17;101527.06;;;12.64;56.78
11985;BME280;6052;53.246;10.368;2023-04-07T11:03:55;101534.25;;;12.40;55.99
11985;BME280;6052;53.246;10.368;2023-04-07T11:06:25;101534.34;;;12.75;56.56
11985;BME280;6052;53.246;10.368;2023-04-07T11:08:55;101524.88;;;12.84;55.75
11985;BME280;6052;53.246;10.368;2023-04-07T11:11:38;101523.69;;;12.80;55.84
11985;BME280;6052;53.246;10.368;2023-04-07T11:14:10;101514.59;;;12.81;55.69
11985;BME280;6052;53.246;10.368;2023-04-07T11:16:41;101525.38;;;12.92;57.09
11985;BME280;6052;53.246;10.368;2023-04-07T11:19:11;101521.63;;;12.93;56.31
11985;BME280;6052;53.246;10.368;2023-04-07T11:21:41;101528.88;;;12.93;55.54
11985;BME280;6052;53.246;10.368;2023-04-07T11:24:30;101528.22;;;12.97;55.25
11985;BME280;6052;53.246;10.368;2023-04-07T11:27:00;101531.56;;;12.81;55.47
11985;BME280;6052;53.246;10.368;2023-04-07T11:29:33;101527.22;;;12.80;55.52
11985;BME280;6052;53.246;10.368;2023-04-07T11:32:03;101516.25;;;12.93;54.27
11985;BME280;6052;53.246;10.368;2023-04-07T11:34:34;101518.56;;;12.90;54.62
11985;BME280;6052;53.246;10.368;2023-04-07T11:37:18;101510.66;;;13.06;55.06
11985;BME280;6052;53.246;10.368;2023-04-07T11:39:52;101514.06;;;13.02;55.19
11985;BME280;6052;53.246;10.368;2023-04-07T11:42:31;101516.56;;;12.85;55.01
11985;BME280;6052;53.246;10.368;2023-04-07T11:45:04;101513.16;;;12.90;54.27
11985;BME280;6052;53.246;10.368;2023-04-07T11:47:35;101509.50;;;13.02;54.79
11985;BME280;6052;53.246;10.368;2023-04-07T11:50:05;101508.91;;;13.00;54.01
11985;BME280;6052;53.246;10.368;2023-04-07T11:52:40;101510.09;;;13.04;53.63
11985;BME280;6052;53.246;10.368;2023-04-07T11:55:18;101506.13;;;13.30;56.10
11985;BME280;6052;53.246;10.368;2023-04-07T11:57:48;101511.72;;;13.17;55.45
11985;BME280;6052;53.246;10.368;2023-04-07T12:00:21;101516.31;;;13.05;53.39
11985;BME280;6052;53.246;10.368;2023-04-07T12:02:51;101530.59;;;13.05;52.78
11985;BME280;6052;53.246;10.368;2023-04-07T12:05:20;101518.16;;;13.04;53.28
11985;BME280;6052;53.246;10.368;2023-04-07T12:07:53;101518.28;;;13.09;52.31
11985;BME280;6052;53.246;10.368;2023-04-07T12:10:24;101525.84;;;12.89;51.87
11985;BME280;6052;53.246;10.368;2023-04-07T12:12:53;101516.31;;;13.05;52.74
11985;BME280;6052;53.246;10.368;2023-04-07T12:15:27;101515.69;;;13.03;52.22
11985;BME280;6052;53.246;10.368;2023-04-07T12:17:57;101524.91;;;12.95;52.03
11985;BME280;6052;53.246;10.368;2023-04-07T12:20:26;101526.84;;;12.65;50.76
11985;BME280;6052;53.246;10.368;2023-04-07T12:22:56;101525.19;;;13.05;51.27
11985;BME280;6052;53.246;10.368;2023-04-07T12:25:26;101515.88;;;12.90;51.81
11985;BME280;6052;53.246;10.368;2023-04-07T12:27:55;101517.34;;;13.04;51.64
11985;BME280;6052;53.246;10.368;2023-04-07T12:30:27;101524.75;;;13.08;52.23
11985;BME280;6052;53.246;10.368;2023-04-07T12:32:57;101517.25;;;13.22;52.77
11985;BME280;6052;53.246;10.368;2023-04-07T12:35:29;101525.91;;;13.12;52.59
11985;BME280;6052;53.246;10.368;2023-04-07T12:37:58;101528.13;;;13.04;51.60
11985;BME280;6052;53.246;10.368;2023-04-07T12:40:28;101520.41;;;13.07;51.59
11985;BME280;6052;53.246;10.368;2023-04-07T12:42:57;101527.56;;;13.25;52.18
11985;BME280;6052;53.246;10.368;2023-04-07T12:45:30;101523.22;;;13.01;51.80
11985;BME280;6052;53.246;10.368;2023-04-07T12:47:59;101528.72;;;13.06;51.26
11985;BME280;6052;53.246;10.368;2023-04-07T12:50:28;101521.44;;;13.06;50.70
11985;BME280;6052;53.246;10.368;2023-04-07T12:52:58;101532.22;;;13.18;51.15
11985;BME280;6052;53.246;10.368;2023-04-07T12:55:29;101526.56;;;12.96;50.58
11985;BME280;6052;53.246;10.368;2023-04-07T12:57:59;101529.19;;;13.03;50.74
11985;BME280;6052;53.246;10.368;2023-04-07T13:00:31;101532.47;;;13.05;51.08
11985;BME280;6052;53.246;10.368;2023-04-07T13:03:00;101527.59;;;12.95;50.50
11985;BME280;6052;53.246;10.368;2023-04-07T13:05:30;101528.00;;;12.99;51.74
11985;BME280;6052;53.246;10.368;2023-04-07T13:07:59;101531.63;;;13.04;51.84
11985;BME280;6052;53.246;10.368;2023-04-07T13:10:29;101523.69;;;13.09;52.53
11985;BME280;6052;53.246;10.368;2023-04-07T13:12:58;101535.53;;;13.08;51.71
11985;BME280;6052;53.246;10.368;2023-04-07T13:15:27;101529.28;;;12.96;52.06
11985;BME280;6052;53.246;10.368;2023-04-07T13:17:59;101527.19;;;12.98;51.02
11985;BME280;6052;53.246;10.368;2023-04-07T13:20:29;101528.81;;;12.99;51.81
11985;BME280;6052;53.246;10.368;2023-04-07T13:22:59;101525.25;;;12.87;51.31